Time;durP1;ratioP1;P1;durP2;ratioP2;P2;SDS_P1;SDS_P2;PMS_P1;PMS_P2;Temp;Humidity;BMP_temperature;BMP_pressure;BME280_temperature;BME280_humidity;BME280_pressure;Samples;Min_cycle;Max_cycle;Signal;HPM_P1;HPM_P2
2023/07/15 04:00:32;;;;;;;4.07;2.87;;;17.70;93.60;;;;;;6003147;23;21473;-87
2023/07/15 04:02:58;;;;;;;3.97;1.63;;;17.70;93.60;;;;;;4964215;28;20446;-85
2023/07/15 04:05:23;;;;;;;4.30;2.30;;;17.70;93.60;;;;;;4974044;28;20234;-87
2023/07/15 04:07:49;;;;;;;1.83;1.70;;;17.70;93.50;;;;;;4983030;28;20183;-87
2023/07/15 04:10:16;;;;;;;4.10;3.37;;;17.70;93.60;;;;;;4990810;28;20308;-87
2023/07/15 04:12:41;;;;;;;3.10;2.50;;;17.70;93.70;;;;;;4989345;28;20254;-87
2023/07/15 04:15:10;;;;;;;4.57;2.20;;;17.70;93.50;;;;;;4987396;23;20525;-87
2023/07/15 04:17:43;;;;;;;2.53;2.33;;;17.70;93.50;;;;;;4948584;28;20191;-88
2023/07/15 04:20:17;;;;;;;5.83;3.90;;;17.70;93.70;;;;;;4952802;28;20525;-85
2023/07/15 04:22:43;;;;;;;1.67;1.60;;;17.70;93.80;;;;;;4961180;28;20445;-85
2023/07/15 04:25:12;;;;;;;5.33;2.20;;;17.80;93.70;;;;;;4949826;28;20475;-84
2023/07/15 04:27:41;;;;;;;1.47;1.37;;;17.80;93.80;;;;;;4934390;29;20452;-85
2023/07/15 04:30:21;;;;;;;4.30;3.33;;;17.80;93.60;;;;;;4934056;29;20423;-84
2023/07/15 04:32:50;;;;;;;2.23;1.93;;;17.80;93.90;;;;;;4935380;29;20459;-89
2023/07/15 04:35:41;;;;;;;6.80;3.60;;;17.80;93.90;;;;;;4943259;28;20491;-88
2023/07/15 04:38:23;;;;;;;1.93;1.83;;;17.80;93.80;;;;;;4933378;29;20442;-86
2023/07/15 04:40:51;;;;;;;1.60;1.60;;;17.90;93.70;;;;;;4931340;29;20420;-88
2023/07/15 04:43:39;;;;;;;2.03;1.90;;;17.90;93.70;;;;;;4936631;29;20424;-85
2023/07/15 04:46:14;;;;;;;3.83;2.77;;;18.00;93.70;;;;;;4946921;28;20965;-87
2023/07/15 04:48:42;;;;;;;4.33;1.57;;;18.00;93.70;;;;;;4931962;29;20485;-89
2023/07/15 04:51:09;;;;;;;3.53;1.57;;;18.00;93.30;;;;;;4943362;29;20461;-88
2023/07/15 04:53:42;;;;;;;2.03;1.87;;;18.10;93.60;;;;;;4937908;29;20510;-86
2023/07/15 04:56:08;;;;;;;2.50;2.17;;;18.10;93.50;;;;;;4949047;28;20466;-86
2023/07/15 04:58:33;;;;;;;2.83;2.00;;;18.20;93.50;;;;;;4932887;29;20427;-88
2023/07/15 05:00:59;;;;;;;2.20;2.00;;;18.30;93.50;;;;;;4933132;29;20218;-85
2023/07/15 05:03:24;;;;;;;1.47;1.23;;;18.30;93.30;;;;;;4934245;29;20180;-85
2023/07/15 05:05:50;;;;;;;2.17;1.20;;;18.40;93.20;;;;;;4958416;28;20207;-87
2023/07/15 05:08:18;;;;;;;2.63;1.93;;;18.40;93.20;;;;;;4937273;29;20185;-87
2023/07/15 05:10:48;;;;;;;3.73;2.27;;;18.50;93.30;;;;;;4921434;29;20444;-87
2023/07/15 05:13:13;;;;;;;11.10;2.57;;;18.50;92.90;;;;;;4945023;29;20816;-88
2023/07/15 05:15:39;;;;;;;1.70;1.63;;;18.60;92.80;;;;;;4938008;29;20471;-85
2023/07/15 05:18:06;;;;;;;1.60;1.50;;;18.70;92.60;;;;;;4951657;29;20270;-90
2023/07/15 05:20:33;;;;;;;3.80;2.00;;;18.80;92.70;;;;;;4944770;29;20284;-89
2023/07/15 05:22:59;;;;;;;1.77;1.67;;;18.80;92.40;;;;;;4944714;29;20582;-85
2023/07/15 05:25:25;;;;;;;1.77;1.40;;;18.90;92.20;;;;;;4947762;28;20977;-89
2023/07/15 05:27:51;;;;;;;1.60;1.50;;;19.00;92.20;;;;;;4941466;29;20435;-88
2023/07/15 05:30:17;;;;;;;1.70;1.60;;;19.10;92.20;;;;;;4937151;29;20218;-86
2023/07/15 05:32:42;;;;;;;1.80;1.70;;;19.20;92.20;;;;;;4945574;28;20240;-88
2023/07/15 05:35:08;;;;;;;2.70;1.50;;;19.30;92.10;;;;;;4933292;29;20208;-84
2023/07/15 05:37:34;;;;;;;2.20;2.00;;;19.40;92.00;;;;;;4933736;29;20184;-85
2023/07/15 05:39:59;;;;;;;1.63;1.63;;;19.40;92.00;;;;;;4941082;29;20497;-86
2023/07/15 05:42:25;;;;;;;1.57;1.47;;;19.50;92.00;;;;;;4949679;29;20245;-85
2023/07/15 05:44:50;;;;;;;1.60;1.53;;;19.60;91.80;;;;;;4948229;29;20632;-88
2023/07/15 05:47:16;;;;;;;1.93;1.80;;;19.70;91.70;;;;;;4946029;28;20184;-85
2023/07/15 05:49:42;;;;;;;2.53;2.40;;;19.80;91.10;;;;;;4936733;29;20199;-85
2023/07/15 05:52:07;;;;;;;3.20;3.00;;;19.90;91.00;;;;;;4946893;29;20266;-85
2023/07/15 05:54:33;;;;;;;1.67;1.57;;;20.10;91.20;;;;;;4942626;29;20717;-89
2023/07/15 05:56:58;;;;;;;2.40;2.20;;;20.20;90.30;;;;;;4937363;29;20235;-85
2023/07/15 05:59:24;;;;;;;5.80;2.30;;;20.30;90.60;;;;;;4945129;29;20196;-86
2023/07/15 06:01:49;;;;;;;1.73;1.73;;;20.40;90.90;;;;;;4944213;29;20210;-85
2023/07/15 06:04:15;;;;;;;1.83;1.73;;;20.50;90.60;;;;;;4948593;28;20214;-85
2023/07/15 06:06:41;;;;;;;1.67;1.57;;;20.70;90.30;;;;;;4948078;29;20226;-87
2023/07/15 06:09:06;;;;;;;1.90;1.80;;;20.80;90.50;;;;;;4938258;29;20195;-87
2023/07/15 06:11:32;;;;;;;1.87;1.30;;;21.00;89.60;;;;;;4936184;29;20308;-88
2023/07/15 06:14:02;;;;;;;4.37;2.30;;;21.10;89.10;;;;;;4961496;28;20191;-87
2023/07/15 06:16:31;;;;;;;1.80;1.70;;;21.30;88.50;;;;;;4944819;28;20235;-89
2023/07/15 06:18:56;;;;;;;2.20;2.00;;;21.40;88.30;;;;;;4936798;29;20463;-85
2023/07/15 06:21:22;;;;;;;1.73;1.63;;;21.50;88.00;;;;;;4943564;29;20452;-88
2023/07/15 06:23:50;;;;;;;2.07;1.93;;;21.60;88.90;;;;;;4940804;29;20713;-86
2023/07/15 06:26:23;;;;;;;4.00;2.30;;;21.70;88.30;;;;;;4948076;29;20681;-85
2023/07/15 06:28:52;;;;;;;2.13;1.97;;;21.80;88.30;;;;;;4948642;29;20455;-86
2023/07/15 06:31:32;;;;;;;2.40;1.80;;;21.90;88.10;;;;;;4937268;29;20515;-88
2023/07/15 06:34:00;;;;;;;1.80;1.67;;;22.00;87.30;;;;;;4944257;29;20445;-86
2023/07/15 06:36:30;;;;;;;3.90;2.13;;;22.10;87.30;;;;;;4937059;29;20451;-88
2023/07/15 06:39:03;;;;;;;2.40;1.80;;;22.30;86.90;;;;;;4945513;29;20431;-86
2023/07/15 06:41:31;;;;;;;3.37;2.83;;;22.50;86.30;;;;;;4950867;29;20437;-85
2023/07/15 06:44:05;;;;;;;1.97;1.90;;;22.60;86.50;;;;;;4940798;29;20416;-89
2023/07/15 06:46:30;;;;;;;1.53;1.50;;;22.70;86.90;;;;;;4943684;29;20525;-88
2023/07/15 06:49:03;;;;;;;2.37;2.10;;;22.80;86.40;;;;;;4940501;29;20666;-87
2023/07/15 06:51:31;;;;;;;2.40;2.20;;;22.90;86.00;;;;;;4942299;29;20712;-85
2023/07/15 06:54:01;;;;;;;1.63;1.47;;;23.00;85.50;;;;;;4940092;28;20556;-86
2023/07/15 06:56:32;;;;;;;6.40;3.00;;;23.20;85.60;;;;;;4948394;28;20466;-85
2023/07/15 06:59:00;;;;;;;2.20;2.03;;;23.30;85.80;;;;;;4940749;29;20439;-85
2023/07/15 07:01:30;;;;;;;3.23;2.63;;;23.40;85.80;;;;;;4944087;29;20442;-85
2023/07/15 07:04:04;;;;;;;2.40;2.17;;;23.50;85.80;;;;;;4945194;29;20442;-88
2023/07/15 07:06:32;;;;;;;1.80;1.70;;;23.60;85.50;;;;;;4945039;29;20458;-86
2023/07/15 07:09:01;;;;;;;5.80;2.93;;;23.80;86.10;;;;;;4946749;29;20515;-89
2023/07/15 07:11:34;;;;;;;1.30;1.30;;;23.90;85.60;;;;;;4951659;29;20423;-85
2023/07/15 07:14:02;;;;;;;2.20;2.00;;;24.00;85.80;;;;;;4938082;29;20427;-87
2023/07/15 07:16:50;;;;;;;4.87;2.20;;;24.10;86.80;;;;;;4948241;28;20547;-87
2023/07/15 07:19:23;;;;;;;2.70;1.83;;;24.20;86.30;;;;;;4955474;29;20435;-86
2023/07/15 07:21:51;;;;;;;2.20;1.50;;;24.40;84.80;;;;;;4941420;29;21121;-88
2023/07/15 07:24:32;;;;;;;3.53;1.47;;;24.50;84.70;;;;;;4944839;28;20459;-88
2023/07/15 07:27:20;;;;;;;1.60;1.50;;;24.70;83.80;;;;;;4955328;29;20974;-86
2023/07/15 07:29:58;;;;;;;1.93;1.50;;;24.90;83.60;;;;;;4943179;29;20427;-88
2023/07/15 07:32:23;;;;;;;2.80;1.70;;;25.00;82.80;;;;;;4941522;29;21083;-88
2023/07/15 07:34:54;;;;;;;1.80;1.70;;;25.20;83.20;;;;;;4941303;29;20459;-87
2023/07/15 07:37:22;;;;;;;2.67;1.40;;;25.30;82.40;;;;;;4948588;29;20603;-89
2023/07/15 07:39:51;;;;;;;1.70;1.60;;;25.50;82.20;;;;;;4946911;29;20423;-85
2023/07/15 07:42:22;;;;;;;1.97;1.57;;;25.60;82.30;;;;;;4936154;29;20444;-87
2023/07/15 07:44:47;;;;;;;4.00;2.70;;;25.70;81.90;;;;;;4943368;29;20471;-85
2023/07/15 07:47:13;;;;;;;2.53;2.07;;;25.80;81.40;;;;;;4937272;29;20431;-89
2023/07/15 07:49:41;;;;;;;1.70;1.70;;;25.90;80.90;;;;;;4948952;29;20187;-85
2023/07/15 07:52:14;;;;;;;2.23;1.57;;;26.00;81.50;;;;;;4953735;29;20180;-84
2023/07/15 07:54:42;;;;;;;1.90;1.67;;;26.10;82.20;;;;;;4936516;29;20479;-85
2023/07/15 07:57:14;;;;;;;2.23;2.03;;;26.30;81.80;;;;;;4953736;28;20431;-86
2023/07/15 07:59:41;;;;;;;2.27;1.73;;;26.40;82.30;;;;;;4941930;29;20420;-88
2023/07/15 08:02:12;;;;;;;2.37;1.70;;;26.50;81.80;;;;;;4945251;29;20430;-85
2023/07/15 08:04:40;;;;;;;1.97;1.63;;;26.70;80.60;;;;;;4940764;28;20474;-87
2023/07/15 08:07:13;;;;;;;1.60;1.50;;;26.90;78.70;;;;;;4940068;29;20508;-88
2023/07/15 08:09:42;;;;;;;2.90;2.03;;;27.10;79.00;;;;;;4943584;29;20451;-86
2023/07/15 08:12:08;;;;;;;2.07;1.90;;;27.20;78.20;;;;;;4937031;29;20434;-87
2023/07/15 08:14:34;;;;;;;2.07;1.70;;;27.30;76.00;;;;;;4937587;29;21145;-87
2023/07/15 08:17:00;;;;;;;1.47;1.30;;;27.50;76.50;;;;;;4944845;29;20187;-86
2023/07/15 08:19:26;;;;;;;2.97;1.80;;;27.70;76.30;;;;;;4943371;29;20560;-86
2023/07/15 08:21:51;;;;;;;3.07;2.20;;;27.80;74.70;;;;;;4937038;29;20184;-86
2023/07/15 08:24:17;;;;;;;2.30;1.10;;;27.90;74.80;;;;;;4943974;29;20222;-85
2023/07/15 08:26:42;;;;;;;2.40;1.90;;;28.00;74.90;;;;;;4936354;29;20187;-86
2023/07/15 08:29:08;;;;;;;1.87;1.83;;;28.10;75.10;;;;;;4951247;29;20186;-87
2023/07/15 08:31:33;;;;;;;3.40;1.87;;;28.20;74.90;;;;;;4939896;29;20187;-89
2023/07/15 08:33:59;;;;;;;1.47;1.37;;;28.30;75.30;;;;;;4945917;29;20587;-88
2023/07/15 08:36:24;;;;;;;2.30;1.50;;;28.40;75.90;;;;;;4935189;29;20282;-87
2023/07/15 08:38:50;;;;;;;3.17;1.97;;;28.50;74.90;;;;;;4934845;29;20580;-86
2023/07/15 08:41:16;;;;;;;2.33;1.57;;;28.60;74.50;;;;;;4936459;29;20198;-89
2023/07/15 08:43:45;;;;;;;1.33;1.23;;;28.70;74.90;;;;;;4943762;29;20191;-91
2023/07/15 08:46:27;;;;;;;1.20;1.20;;;28.70;75.10;;;;;;4935811;29;20475;-90
2023/07/15 08:48:54;;;;;;;1.70;1.60;;;28.90;75.30;;;;;;4946136;29;20936;-84
2023/07/15 08:51:22;;;;;;;9.30;1.70;;;29.00;73.30;;;;;;4934888;29;20420;-88
2023/07/15 08:53:50;;;;;;;1.37;1.27;;;29.10;73.30;;;;;;4935450;29;20420;-85
2023/07/15 08:56:17;;;;;;;4.40;1.70;;;29.20;71.90;;;;;;4952703;28;20509;-86
2023/07/15 08:58:43;;;;;;;1.63;1.53;;;29.30;71.20;;;;;;4939957;29;20440;-86
2023/07/15 09:01:09;;;;;;;1.27;1.17;;;29.30;71.20;;;;;;4941968;29;20526;-87
2023/07/15 09:03:34;;;;;;;1.67;1.23;;;29.50;68.40;;;;;;4942305;29;20517;-90
2023/07/15 09:06:02;;;;;;;1.30;1.20;;;29.60;66.50;;;;;;4942052;29;20215;-87
2023/07/15 09:08:28;;;;;;;1.50;1.40;;;29.70;66.60;;;;;;4933652;29;20585;-85
2023/07/15 09:10:55;;;;;;;1.87;1.53;;;29.80;66.30;;;;;;4932539;29;20485;-86
2023/07/15 09:13:29;;;;;;;1.37;1.27;;;29.90;66.20;;;;;;4936562;29;20637;-88
2023/07/15 09:15:57;;;;;;;1.77;1.27;;;30.00;65.10;;;;;;4938414;29;20526;-86
2023/07/15 09:18:23;;;;;;;2.97;1.57;;;30.10;66.00;;;;;;4936847;29;20516;-88
2023/07/15 09:20:50;;;;;;;2.53;1.70;;;30.20;65.50;;;;;;4938367;29;20431;-88
2023/07/15 09:23:16;;;;;;;0.93;0.90;;;30.30;65.10;;;;;;4945977;29;20420;-88
2023/07/15 09:25:54;;;;;;;5.60;1.80;;;30.50;63.90;;;;;;4943541;29;20474;-88
2023/07/15 09:28:21;;;;;;;2.03;1.70;;;30.60;64.50;;;;;;4954510;29;20433;-85
2023/07/15 09:30:46;;;;;;;1.50;1.50;;;30.70;64.10;;;;;;4953662;29;20410;-89
2023/07/15 09:33:42;;;;;;;1.00;0.93;;;30.80;65.10;;;;;;4948235;29;20479;-86
2023/07/15 09:36:11;;;;;;;1.37;1.37;;;30.80;65.10;;;;;;4929826;29;20681;-87
2023/07/15 09:38:38;;;;;;;3.80;1.73;;;30.90;65.30;;;;;;4966105;28;20426;-91
2023/07/15 09:41:08;;;;;;;2.83;1.60;;;31.00;65.40;;;;;;4948497;29;20423;-87
2023/07/15 09:43:50;;;;;;;1.97;1.27;;;31.10;65.80;;;;;;4945502;29;20416;-87
2023/07/15 09:46:19;;;;;;;1.30;1.30;;;31.30;65.00;;;;;;4946659;29;20545;-88
2023/07/15 09:48:46;;;;;;;1.30;1.20;;;31.30;65.40;;;;;;4948518;29;20459;-87
2023/07/15 09:51:13;;;;;;;5.80;1.57;;;31.40;64.50;;;;;;4948447;29;20728;-86
2023/07/15 09:53:50;;;;;;;1.60;1.43;;;31.40;66.00;;;;;;4955860;29;20425;-88
2023/07/15 09:56:24;;;;;;;1.73;1.10;;;31.50;64.50;;;;;;4954415;28;20540;-89
2023/07/15 09:58:54;;;;;;;4.20;2.27;;;31.60;63.10;;;;;;4949879;28;20431;-88
2023/07/15 10:01:34;;;;;;;1.87;1.80;;;31.70;62.10;;;;;;4955440;29;20858;-89
2023/07/15 10:04:24;;;;;;;1.70;1.37;;;31.90;61.80;;;;;;4948664;29;20422;-89
2023/07/15 10:06:54;;;;;;;1.97;1.60;;;32.00;63.40;;;;;;4945816;29;20427;-90
2023/07/15 10:09:19;;;;;;;2.03;1.20;;;32.00;62.90;;;;;;4952401;29;20461;-87
2023/07/15 10:11:46;;;;;;;1.33;1.00;;;32.10;63.60;;;;;;4950287;29;20414;-87
2023/07/15 10:14:12;;;;;;;2.50;1.40;;;32.20;63.40;;;;;;4946765;29;20218;-90
2023/07/15 10:16:38;;;;;;;1.70;1.23;;;32.30;62.00;;;;;;4986573;23;20501;-81
2023/07/15 10:19:04;;;;;;;1.60;1.50;;;32.30;63.40;;;;;;4959401;28;20458;-81
2023/07/15 10:21:30;;;;;;;1.57;1.40;;;32.40;62.60;;;;;;4970516;28;20540;-75
2023/07/15 10:24:16;;;;;;;1.57;1.23;;;32.50;62.00;;;;;;4970205;28;20256;-78
2023/07/15 10:26:53;;;;;;;1.30;1.20;;;32.50;61.30;;;;;;4970357;28;20226;-78
2023/07/15 10:29:22;;;;;;;1.23;1.13;;;32.60;63.00;;;;;;4969471;28;20429;-81
2023/07/15 10:32:11;;;;;;;1.27;1.17;;;32.60;62.90;;;;;;4973107;28;20434;-79
2023/07/15 10:34:50;;;;;;;2.40;1.00;;;32.70;63.10;;;;;;4973257;28;20418;-80
2023/07/15 10:37:17;;;;;;;1.50;1.20;;;32.70;61.90;;;;;;4972794;28;20437;-80
2023/07/15 10:39:43;;;;;;;9.50;2.30;;;32.80;62.80;;;;;;4972187;28;20456;-82
2023/07/15 10:42:16;;;;;;;1.30;1.23;;;32.90;63.70;;;;;;4971312;28;20450;-79
2023/07/15 10:44:44;;;;;;;1.30;1.20;;;33.00;63.10;;;;;;4970790;28;20469;-75
2023/07/15 10:47:10;;;;;;;1.07;1.03;;;33.20;62.20;;;;;;4972726;28;20792;-81
2023/07/15 10:49:36;;;;;;;1.33;1.20;;;33.20;62.00;;;;;;4971794;28;21073;-82
2023/07/15 10:52:05;;;;;;;1.20;1.10;;;33.30;61.80;;;;;;4971249;28;20453;-84
2023/07/15 10:54:36;;;;;;;2.40;1.67;;;33.40;62.10;;;;;;4971419;28;20643;-78
2023/07/15 10:57:14;;;;;;;2.27;1.13;;;33.50;60.60;;;;;;4971243;28;20608;-85
2023/07/15 10:59:42;;;;;;;2.90;1.67;;;33.60;60.90;;;;;;4971539;28;20591;-76
2023/07/15 11:02:08;;;;;;;1.70;1.43;;;33.70;60.60;;;;;;4971703;28;20468;-83
2023/07/15 11:04:36;;;;;;;1.00;0.90;;;33.80;59.80;;;;;;4955290;28;20465;-83
2023/07/15 11:07:12;;;;;;;1.30;1.30;;;33.90;61.20;;;;;;4987501;28;20429;-81
2023/07/15 11:09:41;;;;;;;1.10;1.00;;;33.90;60.90;;;;;;4968790;28;20430;-82
2023/07/15 11:12:09;;;;;;;1.33;1.30;;;34.00;60.50;;;;;;4971251;28;20452;-84
2023/07/15 11:14:38;;;;;;;1.47;1.30;;;34.00;61.30;;;;;;4971706;28;20430;-82
2023/07/15 11:17:04;;;;;;;1.57;1.50;;;34.00;60.90;;;;;;4983049;28;20673;-80
2023/07/15 11:19:30;;;;;;;1.83;1.63;;;34.00;61.10;;;;;;4972678;28;20516;-83
2023/07/15 11:21:57;;;;;;;1.60;0.97;;;34.00;61.40;;;;;;4971277;28;20758;-83
2023/07/15 11:24:27;;;;;;;1.70;1.40;;;33.90;61.40;;;;;;4971462;28;20206;-82
2023/07/15 11:26:53;;;;;;;6.43;1.20;;;33.90;62.10;;;;;;4969222;28;20945;-85
2023/07/15 11:29:24;;;;;;;7.00;1.73;;;34.00;62.90;;;;;;4971642;28;20465;-83
2023/07/15 11:31:50;;;;;;;1.03;1.00;;;34.00;62.90;;;;;;4970895;28;20450;-82
2023/07/15 11:34:17;;;;;;;1.13;1.03;;;34.10;62.80;;;;;;4969911;28;20461;-84
2023/07/15 11:36:43;;;;;;;1.50;1.40;;;34.10;62.90;;;;;;4966305;28;20480;-73
2023/07/15 11:39:13;;;;;;;1.17;1.07;;;34.10;60.70;;;;;;4969528;28;20437;-83
2023/07/15 11:41:39;;;;;;;0.90;0.83;;;34.20;61.20;;;;;;4971585;28;20869;-83
2023/07/15 11:44:16;;;;;;;2.40;1.80;;;34.20;61.50;;;;;;4970274;28;20425;-82
2023/07/15 11:46:44;;;;;;;1.20;1.10;;;34.20;60.40;;;;;;4962054;28;20456;-83
2023/07/15 11:49:10;;;;;;;1.13;1.03;;;34.20;60.90;;;;;;4971780;28;20421;-83
2023/07/15 11:51:42;;;;;;;1.40;1.20;;;34.10;60.80;;;;;;4970205;28;20442;-84
2023/07/15 11:54:15;;;;;;;1.40;1.30;;;34.20;60.40;;;;;;4971404;28;20414;-81
2023/07/15 11:56:43;;;;;;;1.67;1.10;;;34.30;60.80;;;;;;4970387;28;20827;-83
2023/07/15 11:59:30;;;;;;;2.50;1.30;;;34.40;60.20;;;;;;4970582;28;20430;-83
2023/07/15 12:01:57;;;;;;;1.63;1.10;;;34.50;60.10;;;;;;4971244;28;20473;-81
2023/07/15 12:04:28;;;;;;;0.90;0.80;;;34.70;59.80;;;;;;4969665;28;20462;-80
2023/07/15 12:06:54;;;;;;;1.20;1.00;;;34.90;61.50;;;;;;4970345;28;20441;-82
2023/07/15 12:09:21;;;;;;;1.33;1.23;;;35.00;60.10;;;;;;4970187;28;20706;-83
2023/07/15 12:11:48;;;;;;;1.47;1.37;;;35.10;60.10;;;;;;4970435;28;20683;-82
2023/07/15 12:14:15;;;;;;;2.83;1.50;;;35.20;60.10;;;;;;4970724;28;20561;-85
2023/07/15 12:16:42;;;;;;;1.40;1.30;;;35.30;59.70;;;;;;4967275;28;20950;-84
2023/07/15 12:19:11;;;;;;;1.00;0.90;;;35.40;60.30;;;;;;4967966;28;20425;-82
2023/07/15 12:21:37;;;;;;;1.53;1.37;;;35.50;61.70;;;;;;4955283;28;20456;-77
2023/07/15 12:24:02;;;;;;;1.27;1.23;;;35.60;59.90;;;;;;4982981;28;20789;-85
2023/07/15 12:26:28;;;;;;;1.37;1.27;;;35.70;60.10;;;;;;4969316;28;20190;-85
2023/07/15 12:28:54;;;;;;;1.10;1.00;;;35.70;60.00;;;;;;4971545;28;20213;-82
2023/07/15 12:31:20;;;;;;;2.93;1.43;;;35.80;60.40;;;;;;4963023;28;20237;-84
2023/07/15 12:33:46;;;;;;;1.57;1.33;;;35.90;59.40;;;;;;4970496;28;20316;-79
2023/07/15 12:36:13;;;;;;;1.73;1.40;;;35.90;58.90;;;;;;4969602;28;20190;-82
2023/07/15 12:38:38;;;;;;;2.47;1.73;;;36.00;58.90;;;;;;4962653;28;20215;-84
2023/07/15 12:41:05;;;;;;;1.37;1.27;;;36.10;58.20;;;;;;4970562;28;20481;-84
2023/07/15 12:43:32;;;;;;;0.97;0.87;;;36.20;59.00;;;;;;4967339;28;20674;-82
2023/07/15 12:45:59;;;;;;;1.50;1.50;;;36.10;58.50;;;;;;4963601;28;20477;-85
2023/07/15 12:48:25;;;;;;;1.60;1.03;;;36.00;59.00;;;;;;4970920;28;20434;-84
2023/07/15 12:50:50;;;;;;;1.20;1.10;;;35.90;58.40;;;;;;4970421;28;20456;-85
2023/07/15 12:53:17;;;;;;;0.97;0.87;;;35.80;59.90;;;;;;4962484;28;20677;-82
2023/07/15 12:55:43;;;;;;;1.63;1.40;;;35.90;60.40;;;;;;4970680;28;20218;-82
2023/07/15 12:58:09;;;;;;;1.07;0.97;;;35.90;59.40;;;;;;4968295;28;20462;-83
2023/07/15 13:00:35;;;;;;;2.00;1.20;;;36.00;60.10;;;;;;4969212;28;20652;-83
2023/07/15 13:03:01;;;;;;;1.30;1.20;;;36.10;58.50;;;;;;4971800;28;20456;-81
2023/07/15 13:05:27;;;;;;;26.27;1.57;;;36.20;57.80;;;;;;4969082;28;20232;-76
2023/07/15 13:07:53;;;;;;;2.80;1.47;;;36.40;57.30;;;;;;4962769;28;20262;-82
2023/07/15 13:10:18;;;;;;;1.43;1.33;;;36.50;56.80;;;;;;4968721;28;20504;-79
2023/07/15 13:12:44;;;;;;;1.27;1.17;;;36.50;57.50;;;;;;4968731;28;20178;-79
2023/07/15 13:15:10;;;;;;;2.37;1.33;;;36.60;58.40;;;;;;4969423;28;20241;-80
2023/07/15 13:17:39;;;;;;;1.20;1.10;;;36.80;58.00;;;;;;4967241;28;20742;-82
2023/07/15 13:20:09;;;;;;;1.63;1.27;;;36.80;57.50;;;;;;4953926;28;20285;-82
2023/07/15 13:22:38;;;;;;;1.17;1.13;;;36.80;57.20;;;;;;4977919;28;20506;-83
2023/07/15 13:25:06;;;;;;;1.60;1.50;;;36.80;57.70;;;;;;4970183;28;20463;-80
2023/07/15 13:27:33;;;;;;;1.50;1.20;;;36.60;57.80;;;;;;4969641;28;20425;-78
2023/07/15 13:29:59;;;;;;;1.73;1.63;;;36.50;56.20;;;;;;4967207;28;20426;-77
2023/07/15 13:32:24;;;;;;;1.57;1.03;;;36.30;57.00;;;;;;4968228;28;20560;-83
2023/07/15 13:34:50;;;;;;;1.00;1.00;;;36.20;57.10;;;;;;4968895;28;20236;-85
2023/07/15 13:37:16;;;;;;;0.90;0.80;;;36.30;57.20;;;;;;4958715;28;20190;-75
2023/07/15 13:39:42;;;;;;;1.97;1.60;;;36.30;56.80;;;;;;4958741;28;20171;-86
2023/07/15 13:42:26;;;;;;;1.77;0.90;;;36.40;56.20;;;;;;4958305;28;20200;-85
2023/07/15 13:44:52;;;;;;;1.20;1.10;;;36.50;57.00;;;;;;4955949;28;20470;-84
2023/07/15 13:47:18;;;;;;;1.43;1.33;;;36.50;55.70;;;;;;4961166;28;20426;-75
2023/07/15 13:49:44;;;;;;;1.03;1.03;;;36.50;56.80;;;;;;4958320;28;20462;-83
2023/07/15 13:52:10;;;;;;;1.40;1.00;;;36.40;56.80;;;;;;4951039;28;20247;-84
2023/07/15 13:54:36;;;;;;;1.00;0.97;;;36.30;57.80;;;;;;4954562;28;20433;-85
2023/07/15 13:57:02;;;;;;;1.53;1.30;;;36.30;58.40;;;;;;4970711;28;20520;-83
2023/07/15 13:59:27;;;;;;;1.00;1.00;;;36.40;59.20;;;;;;4966521;28;20261;-85
2023/07/15 14:01:53;;;;;;;1.07;0.97;;;36.40;58.20;;;;;;4964166;28;20202;-82
2023/07/15 14:04:19;;;;;;;1.97;1.00;;;36.50;59.10;;;;;;4969826;28;20174;-84
2023/07/15 14:06:48;;;;;;;1.30;1.20;;;36.70;58.80;;;;;;4965986;28;20523;-84
2023/07/15 14:09:15;;;;;;;0.93;0.83;;;36.80;58.40;;;;;;4967409;28;20426;-84
2023/07/15 14:11:42;;;;;;;1.77;1.17;;;37.00;57.80;;;;;;4962740;28;20496;-84
2023/07/15 14:14:08;;;;;;;1.67;1.57;;;37.20;57.10;;;;;;4966617;28;20458;-84
2023/07/15 14:16:34;;;;;;;1.67;1.47;;;37.40;57.50;;;;;;4965696;28;20474;-84
2023/07/15 14:19:00;;;;;;;1.40;1.30;;;37.60;56.50;;;;;;4967281;28;20213;-84
2023/07/15 14:21:26;;;;;;;1.13;1.00;;;37.80;56.80;;;;;;4953870;28;20519;-83
2023/07/15 14:23:51;;;;;;;2.37;1.93;;;38.00;56.70;;;;;;4966902;28;20218;-79
2023/07/15 14:26:18;;;;;;;3.33;1.37;;;38.10;55.70;;;;;;4968518;28;20210;-82
2023/07/15 14:28:44;;;;;;;1.40;1.30;;;38.00;54.70;;;;;;4971587;28;20175;-82
2023/07/15 14:31:10;;;;;;;1.27;1.17;;;37.80;54.20;;;;;;4967467;28;20466;-83
2023/07/15 14:33:35;;;;;;;2.63;1.50;;;37.50;54.60;;;;;;4938937;28;20277;-84
2023/07/15 14:36:01;;;;;;;1.63;1.20;;;37.30;55.40;;;;;;4949686;29;20183;-84
2023/07/15 14:38:27;;;;;;;0.90;0.80;;;37.10;56.50;;;;;;4977267;28;20609;-84
2023/07/15 14:40:52;;;;;;;1.33;1.10;;;37.00;57.80;;;;;;4952430;28;20207;-84
2023/07/15 14:43:18;;;;;;;5.60;1.40;;;36.90;56.50;;;;;;4968049;28;20686;-85
2023/07/15 14:45:45;;;;;;;1.17;1.10;;;36.80;57.80;;;;;;4953211;28;20658;-82
2023/07/15 14:48:10;;;;;;;1.40;1.30;;;36.90;56.40;;;;;;4952263;28;20234;-84
2023/07/15 14:50:36;;;;;;;1.33;1.13;;;36.80;56.60;;;;;;4962349;28;20453;-83
2023/07/15 14:53:06;;;;;;;1.23;1.10;;;36.80;58.60;;;;;;4958438;28;20191;-85
2023/07/15 14:55:35;;;;;;;1.10;1.00;;;36.80;58.20;;;;;;4961368;28;20191;-85
2023/07/15 14:58:01;;;;;;;1.10;1.00;;;36.90;58.50;;;;;;4963150;28;20517;-84
2023/07/15 15:00:27;;;;;;;1.67;1.23;;;37.00;58.50;;;;;;4962558;28;20541;-86
2023/07/15 15:02:53;;;;;;;1.07;1.00;;;37.20;58.50;;;;;;4972237;28;20852;-83
2023/07/15 15:05:19;;;;;;;1.40;1.30;;;37.40;57.10;;;;;;4970216;28;20206;-86
2023/07/15 15:07:45;;;;;;;0.90;0.80;;;37.30;56.30;;;;;;4970636;28;20802;-86
2023/07/15 15:10:10;;;;;;;1.17;1.07;;;37.20;57.00;;;;;;4951523;28;20215;-87
2023/07/15 15:12:36;;;;;;;1.27;1.20;;;37.20;57.70;;;;;;4967918;28;20313;-86
2023/07/15 15:15:03;;;;;;;1.57;1.50;;;37.40;57.50;;;;;;4965658;28;20653;-87
2023/07/15 15:17:28;;;;;;;1.00;1.00;;;37.40;57.50;;;;;;4970054;28;20323;-85
2023/07/15 15:19:54;;;;;;;1.10;1.00;;;37.40;57.10;;;;;;4970542;28;20533;-87
2023/07/15 15:22:19;;;;;;;1.23;1.20;;;37.30;57.10;;;;;;4970618;28;20347;-86
2023/07/15 15:24:45;;;;;;;2.07;1.50;;;37.20;57.80;;;;;;4970521;28;20229;-87
2023/07/15 15:27:11;;;;;;;1.50;1.17;;;36.90;57.70;;;;;;4971953;28;20195;-85
2023/07/15 15:29:36;;;;;;;1.57;1.40;;;36.70;57.50;;;;;;4971600;28;20242;-86
2023/07/15 15:32:02;;;;;;;1.53;1.10;;;36.40;57.60;;;;;;4970635;28;20375;-86
2023/07/15 15:34:27;;;;;;;1.53;1.30;;;36.20;58.80;;;;;;4968209;28;20209;-86
2023/07/15 15:36:53;;;;;;;1.33;1.23;;;36.00;57.90;;;;;;4969198;28;20185;-85
2023/07/15 15:39:18;;;;;;;1.80;1.53;;;35.90;58.80;;;;;;4981306;28;20182;-86
2023/07/15 15:41:44;;;;;;;2.53;1.83;;;35.70;57.80;;;;;;4962190;28;20687;-87
2023/07/15 15:44:10;;;;;;;2.73;1.40;;;35.60;59.70;;;;;;4959196;28;20181;-87
2023/07/15 15:46:35;;;;;;;3.00;1.70;;;35.50;59.50;;;;;;4963348;28;20326;-87
2023/07/15 15:49:01;;;;;;;1.10;1.00;;;35.40;60.60;;;;;;4956898;28;20720;-86
2023/07/15 15:51:27;;;;;;;2.83;2.03;;;35.30;61.00;;;;;;4959899;28;20214;-86
2023/07/15 15:53:59;;;;;;;1.23;1.13;;;35.20;60.10;;;;;;4962214;28;20426;-86
2023/07/15 15:56:25;;;;;;;1.53;1.43;;;35.00;60.00;;;;;;4951601;28;20427;-86
2023/07/15 15:58:50;;;;;;;1.33;1.27;;;34.90;60.60;;;;;;4985156;28;20414;-83
2023/07/15 16:01:16;;;;;;;5.00;1.53;;;34.80;60.40;;;;;;4972744;28;20194;-84
2023/07/15 16:03:42;;;;;;;1.57;1.20;;;34.70;60.00;;;;;;4962715;28;20178;-84
2023/07/15 16:06:08;;;;;;;1.33;1.23;;;34.60;60.80;;;;;;4970497;28;20206;-83
2023/07/15 16:08:33;;;;;;;2.60;1.20;;;34.50;61.40;;;;;;4967112;28;20284;-83
2023/07/15 16:10:59;;;;;;;1.50;1.30;;;34.40;61.50;;;;;;4955402;28;20996;-83
2023/07/15 16:13:26;;;;;;;1.80;1.73;;;34.40;60.90;;;;;;4950363;28;20210;-83
2023/07/15 16:15:52;;;;;;;1.93;1.40;;;34.30;60.90;;;;;;4969178;28;20249;-82
2023/07/15 16:18:19;;;;;;;2.50;1.63;;;34.20;61.20;;;;;;4980951;23;21002;-80
2023/07/15 16:20:45;;;;;;;1.70;1.50;;;34.10;62.00;;;;;;4950502;28;20469;-81
2023/07/15 16:23:11;;;;;;;1.47;1.33;;;34.10;62.50;;;;;;4949109;28;20513;-80
2023/07/15 16:25:37;;;;;;;1.77;1.67;;;34.00;63.20;;;;;;4963450;28;20223;-81
2023/07/15 16:28:04;;;;;;;1.40;1.30;;;33.90;62.00;;;;;;4949695;29;20678;-81
2023/07/15 16:30:31;;;;;;;1.00;0.90;;;33.80;64.40;;;;;;4950148;28;20710;-81
2023/07/15 16:32:57;;;;;;;1.80;1.50;;;33.80;64.10;;;;;;4950675;29;20532;-81
2023/07/15 16:35:24;;;;;;;1.17;1.13;;;33.70;63.70;;;;;;4946677;29;20442;-79
2023/07/15 16:37:50;;;;;;;1.47;1.37;;;33.60;64.00;;;;;;4949422;28;20438;-80
2023/07/15 16:40:15;;;;;;;1.30;1.20;;;33.50;64.90;;;;;;4948473;28;20962;-81
2023/07/15 16:42:41;;;;;;;1.57;1.47;;;33.40;65.60;;;;;;4951427;28;20350;-82
2023/07/15 16:45:08;;;;;;;1.30;1.20;;;33.30;66.40;;;;;;4949361;29;20262;-81
2023/07/15 16:47:34;;;;;;;1.73;1.20;;;33.20;66.90;;;;;;4950962;28;20699;-81
2023/07/15 16:50:00;;;;;;;1.40;1.27;;;33.10;67.60;;;;;;4950463;28;20427;-81
2023/07/15 16:52:25;;;;;;;1.60;1.50;;;33.00;68.40;;;;;;4949645;28;20210;-81